sensor_id;sensor_type;location;lat;lon;timestamp;pressure;altitude;pressure_sealevel;temperature;humidity
75617;BME280;64200;55.426;37.758;2023-08-12T00:02:40;99552.06;;;22.40;67.70
75617;BME280;64200;55.426;37.758;2023-08-12T00:07:41;99548.47;;;22.40;68.35
75617;BME280;64200;55.426;37.758;2023-08-12T00:12:42;99551.09;;;22.24;68.96
75617;BME280;64200;55.426;37.758;2023-08-12T00:17:43;99536.13;;;22.24;68.69
75617;BME280;64200;55.426;37.758;2023-08-12T00:22:44;99542.66;;;22.32;68.62
75617;BME280;64200;55.426;37.758;2023-08-12T00:27:44;99550.00;;;22.14;69.32
75617;BME280;64200;55.426;37.758;2023-08-12T00:32:45;99530.44;;;22.24;69.03
75617;BME280;64200;55.426;37.758;2023-08-12T00:37:45;99518.69;;;22.41;68.55
75617;BME280;64200;55.426;37.758;2023-08-12T00:42:46;99512.53;;;22.50;68.20
75617;BME280;64200;55.426;37.758;2023-08-12T00:47:47;99531.81;;;22.44;68.24
75617;BME280;64200;55.426;37.758;2023-08-12T00:52:49;99543.72;;;22.42;68.24
75617;BME280;64200;55.426;37.758;2023-08-12T00:57:50;99529.94;;;22.47;68.23
75617;BME280;64200;55.426;37.758;2023-08-12T01:02:51;99538.28;;;22.44;68.08
75617;BME280;64200;55.426;37.758;2023-08-12T01:07:52;99521.34;;;22.39;68.28
75617;BME280;64200;55.426;37.758;2023-08-12T01:12:59;99523.06;;;22.42;68.31
75617;BME280;64200;55.426;37.758;2023-08-12T01:18:03;99509.97;;;22.39;68.24
75617;BME280;64200;55.426;37.758;2023-08-12T01:23:13;99500.66;;;22.38;68.31
75617;BME280;64200;55.426;37.758;2023-08-12T01:28:14;99500.13;;;22.40;68.43
75617;BME280;64200;55.426;37.758;2023-08-12T01:33:31;99489.16;;;22.44;68.23
75617;BME280;64200;55.426;37.758;2023-08-12T01:38:37;99486.31;;;22.44;67.89
75617;BME280;64200;55.426;37.758;2023-08-12T01:43:40;99489.59;;;22.48;67.83
75617;BME280;64200;55.426;37.758;2023-08-12T01:48:41;99494.72;;;22.50;67.83
75617;BME280;64200;55.426;37.758;2023-08-12T01:53:42;99494.66;;;22.42;67.91
75617;BME280;64200;55.426;37.758;2023-08-12T01:58:42;99482.72;;;22.43;67.96
75617;BME280;64200;55.426;37.758;2023-08-12T02:03:43;99488.00;;;22.39;67.95
75617;BME280;64200;55.426;37.758;2023-08-12T02:08:43;99494.09;;;22.43;67.91
75617;BME280;64200;55.426;37.758;2023-08-12T02:13:44;99471.56;;;22.45;67.56
75617;BME280;64200;55.426;37.758;2023-08-12T02:18:44;99504.63;;;22.22;68.05
75617;BME280;64200;55.426;37.758;2023-08-12T02:23:45;99497.16;;;22.11;68.32
75617;BME280;64200;55.426;37.758;2023-08-12T02:28:45;99495.28;;;22.14;68.24
75617;BME280;64200;55.426;37.758;2023-08-12T02:33:46;99480.59;;;22.23;67.89
75617;BME280;64200;55.426;37.758;2023-08-12T02:38:47;99466.59;;;22.25;67.94
75617;BME280;64200;55.426;37.758;2023-08-12T02:43:47;99469.00;;;22.34;67.41
75617;BME280;64200;55.426;37.758;2023-08-12T02:48:48;99455.34;;;22.33;66.84
75617;BME280;64200;55.426;37.758;2023-08-12T02:53:48;99451.31;;;22.28;67.13
75617;BME280;64200;55.426;37.758;2023-08-12T02:58:49;99466.28;;;22.28;67.07
75617;BME280;64200;55.426;37.758;2023-08-12T03:03:49;99448.03;;;22.24;67.30
75617;BME280;64200;55.426;37.758;2023-08-12T03:08:50;99449.88;;;22.35;66.74
75617;BME280;64200;55.426;37.758;2023-08-12T03:13:50;99444.94;;;22.35;66.61
75617;BME280;64200;55.426;37.758;2023-08-12T03:18:51;99467.47;;;22.33;66.56
75617;BME280;64200;55.426;37.758;2023-08-12T03:23:51;99459.06;;;22.27;66.70
75617;BME280;64200;55.426;37.758;2023-08-12T03:28:52;99441.38;;;22.21;66.42
75617;BME280;64200;55.426;37.758;2023-08-12T03:33:52;99445.53;;;22.20;66.38
75617;BME280;64200;55.426;37.758;2023-08-12T03:38:53;99458.00;;;22.17;66.54
75617;BME280;64200;55.426;37.758;2023-08-12T03:43:53;99453.66;;;22.16;66.42
75617;BME280;64200;55.426;37.758;2023-08-12T03:48:54;99450.50;;;22.06;66.32
75617;BME280;64200;55.426;37.758;2023-08-12T03:53:54;99464.53;;;22.04;65.88
75617;BME280;64200;55.426;37.758;2023-08-12T03:58:55;99453.44;;;22.14;65.78
75617;BME280;64200;55.426;37.758;2023-08-12T04:03:55;99455.47;;;22.27;65.41
75617;BME280;64200;55.426;37.758;2023-08-12T04:08:56;99447.91;;;22.30;64.66
75617;BME280;64200;55.426;37.758;2023-08-12T04:13:56;99471.84;;;22.34;64.50
75617;BME280;64200;55.426;37.758;2023-08-12T04:18:57;99475.69;;;22.23;64.71
75617;BME280;64200;55.426;37.758;2023-08-12T04:23:58;99474.84;;;22.15;64.57
75617;BME280;64200;55.426;37.758;2023-08-12T04:28:58;99475.31;;;22.06;64.63
75617;BME280;64200;55.426;37.758;2023-08-12T04:33:59;99476.72;;;22.13;64.05
75617;BME280;64200;55.426;37.758;2023-08-12T04:38:59;99492.22;;;22.11;64.09
75617;BME280;64200;55.426;37.758;2023-08-12T04:44:00;99484.59;;;22.06;64.20
75617;BME280;64200;55.426;37.758;2023-08-12T04:49:00;99437.13;;;22.15;64.29
75617;BME280;64200;55.426;37.758;2023-08-12T04:54:01;99424.03;;;22.46;64.13
75617;BME280;64200;55.426;37.758;2023-08-12T04:59:02;99411.53;;;22.49;64.21
75617;BME280;64200;55.426;37.758;2023-08-12T05:04:03;99399.84;;;22.32;64.28
75617;BME280;64200;55.426;37.758;2023-08-12T05:09:03;99412.34;;;22.15;64.28
75617;BME280;64200;55.426;37.758;2023-08-12T05:14:04;99395.44;;;22.09;64.50
75617;BME280;64200;55.426;37.758;2023-08-12T05:19:04;99417.59;;;21.90;65.25
75617;BME280;64200;55.426;37.758;2023-08-12T05:24:05;99413.84;;;21.95;64.90
75617;BME280;64200;55.426;37.758;2023-08-12T05:29:06;99381.09;;;22.15;64.54
75617;BME280;64200;55.426;37.758;2023-08-12T05:34:07;99364.13;;;22.23;63.97
75617;BME280;64200;55.426;37.758;2023-08-12T05:39:07;99359.34;;;22.18;63.32
75617;BME280;64200;55.426;37.758;2023-08-12T05:44:08;99371.41;;;22.10;63.13
75617;BME280;64200;55.426;37.758;2023-08-12T05:49:08;99376.53;;;22.12;63.02
75617;BME280;64200;55.426;37.758;2023-08-12T05:54:10;99388.16;;;22.22;61.62
75617;BME280;64200;55.426;37.758;2023-08-12T05:59:10;99381.16;;;22.23;61.53
75617;BME280;64200;55.426;37.758;2023-08-12T06:04:11;99391.78;;;22.43;61.75
75617;BME280;64200;55.426;37.758;2023-08-12T06:09:11;99380.13;;;22.34;61.63
75617;BME280;64200;55.426;37.758;2023-08-12T06:14:12;99387.75;;;22.18;61.05
75617;BME280;64200;55.426;37.758;2023-08-12T06:19:12;99395.22;;;22.28;61.76
75617;BME280;64200;55.426;37.758;2023-08-12T06:24:13;99395.00;;;22.40;61.33
75617;BME280;64200;55.426;37.758;2023-08-12T06:29:13;99391.41;;;22.47;60.80
75617;BME280;64200;55.426;37.758;2023-08-12T06:34:14;99383.69;;;22.76;60.72
75617;BME280;64200;55.426;37.758;2023-08-12T06:39:14;99384.50;;;22.85;59.89
75617;BME280;64200;55.426;37.758;2023-08-12T06:44:15;99388.59;;;22.76;59.12
75617;BME280;64200;55.426;37.758;2023-08-12T06:49:16;99376.75;;;22.93;58.70
75617;BME280;64200;55.426;37.758;2023-08-12T06:54:16;99365.06;;;23.41;58.26
75617;BME280;64200;55.426;37.758;2023-08-12T06:59:17;99360.16;;;23.57;56.04
75617;BME280;64200;55.426;37.758;2023-08-12T07:04:18;99360.78;;;23.71;56.69
75617;BME280;64200;55.426;37.758;2023-08-12T07:09:18;99350.13;;;23.63;55.61
75617;BME280;64200;55.426;37.758;2023-08-12T07:14:19;99338.16;;;23.49;55.55
75617;BME280;64200;55.426;37.758;2023-08-12T07:19:19;99336.28;;;23.60;54.79
75617;BME280;64200;55.426;37.758;2023-08-12T07:24:20;99350.13;;;23.63;55.57
75617;BME280;64200;55.426;37.758;2023-08-12T07:29:21;99373.84;;;23.58;54.76
75617;BME280;64200;55.426;37.758;2023-08-12T07:34:21;99384.59;;;23.37;55.70
75617;BME280;64200;55.426;37.758;2023-08-12T07:39:22;99366.78;;;23.44;55.83
75617;BME280;64200;55.426;37.758;2023-08-12T07:44:22;99356.88;;;23.37;56.39
75617;BME280;64200;55.426;37.758;2023-08-12T07:49:23;99350.84;;;23.41;56.79
75617;BME280;64200;55.426;37.758;2023-08-12T07:54:23;99370.63;;;23.62;56.84
75617;BME280;64200;55.426;37.758;2023-08-12T07:59:24;99381.69;;;23.73;56.94
75617;BME280;64200;55.426;37.758;2023-08-12T08:04:26;99363.44;;;23.68;57.64
75617;BME280;64200;55.426;37.758;2023-08-12T08:09:26;99403.97;;;23.38;58.13
75617;BME280;64200;55.426;37.758;2023-08-12T08:14:27;99411.50;;;23.28;59.17
75617;BME280;64200;55.426;37.758;2023-08-12T08:19:27;99416.47;;;23.35;58.94
75617;BME280;64200;55.426;37.758;2023-08-12T08:24:28;99427.41;;;23.60;58.64
75617;BME280;64200;55.426;37.758;2023-08-12T08:29:29;99404.81;;;23.62;58.37
75617;BME280;64200;55.426;37.758;2023-08-12T08:34:30;99393.53;;;24.00;58.11
75617;BME280;64200;55.426;37.758;2023-08-12T08:39:30;99384.97;;;23.93;56.82
75617;BME280;64200;55.426;37.758;2023-08-12T08:44:33;99380.78;;;23.86;56.67
75617;BME280;64200;55.426;37.758;2023-08-12T08:49:34;99378.03;;;23.57;56.46
75617;BME280;64200;55.426;37.758;2023-08-12T08:54:36;99370.56;;;23.46;56.36
75617;BME280;64200;55.426;37.758;2023-08-12T08:59:37;99375.13;;;23.42;56.86
75617;BME280;64200;55.426;37.758;2023-08-12T09:04:38;99405.25;;;23.29;56.83
75617;BME280;64200;55.426;37.758;2023-08-12T09:09:45;99425.56;;;23.33;56.35
75617;BME280;64200;55.426;37.758;2023-08-12T09:14:48;99415.31;;;23.30;56.66
75617;BME280;64200;55.426;37.758;2023-08-12T09:19:49;99425.41;;;23.39;55.93
75617;BME280;64200;55.426;37.758;2023-08-12T09:24:50;99404.09;;;23.25;55.57
75617;BME280;64200;55.426;37.758;2023-08-12T09:29:55;99381.94;;;23.02;56.25
75617;BME280;64200;55.426;37.758;2023-08-12T09:34:57;99365.38;;;23.22;56.24
75617;BME280;64200;55.426;37.758;2023-08-12T09:39:58;99343.22;;;23.36;56.61
75617;BME280;64200;55.426;37.758;2023-08-12T09:44:59;99346.09;;;23.43;56.69
75617;BME280;64200;55.426;37.758;2023-08-12T09:50:00;99366.94;;;23.30;56.91
75617;BME280;64200;55.426;37.758;2023-08-12T09:55:02;99359.44;;;23.64;57.08
75617;BME280;64200;55.426;37.758;2023-08-12T10:00:06;99360.16;;;23.57;56.65
75617;BME280;64200;55.426;37.758;2023-08-12T10:05:18;99377.97;;;23.05;57.82
75617;BME280;64200;55.426;37.758;2023-08-12T10:10:20;99384.56;;;23.00;58.50
75617;BME280;64200;55.426;37.758;2023-08-12T10:15:21;99369.59;;;23.00;59.25
75617;BME280;64200;55.426;37.758;2023-08-12T10:20:24;99390.66;;;22.75;58.96
75617;BME280;64200;55.426;37.758;2023-08-12T10:25:25;99378.69;;;22.69;59.52
75617;BME280;64200;55.426;37.758;2023-08-12T10:30:31;99380.53;;;22.59;60.11
75617;BME280;64200;55.426;37.758;2023-08-12T10:36:00;99404.31;;;22.48;60.38
75617;BME280;64200;55.426;37.758;2023-08-12T10:41:20;99426.69;;;22.31;61.32
75617;BME280;64200;55.426;37.758;2023-08-12T10:46:32;99417.47;;;22.17;62.57
75617;BME280;64200;55.426;37.758;2023-08-12T10:51:53;99428.91;;;22.03;63.44
75617;BME280;64200;55.426;37.758;2023-08-12T10:57:09;99445.38;;;22.05;63.85
75617;BME280;64200;55.426;37.758;2023-08-12T11:02:34;99440.13;;;22.09;64.19
75617;BME280;64200;55.426;37.758;2023-08-12T11:12:55;99438.63;;;21.73;66.24
75617;BME280;64200;55.426;37.758;2023-08-12T11:17:55;99421.63;;;21.33;68.40
75617;BME280;64200;55.426;37.758;2023-08-12T11:22:56;99426.22;;;21.23;69.35
75617;BME280;64200;55.426;37.758;2023-08-12T11:27:59;99406.59;;;20.98;70.31
75617;BME280;64200;55.426;37.758;2023-08-12T11:33:01;99395.69;;;21.02;70.42
75617;BME280;64200;55.426;37.758;2023-08-12T11:38:01;99385.19;;;21.11;70.45
75617;BME280;64200;55.426;37.758;2023-08-12T11:43:02;99402.00;;;21.09;71.06
75617;BME280;64200;55.426;37.758;2023-08-12T11:48:04;99393.63;;;21.03;71.48
75617;BME280;64200;55.426;37.758;2023-08-12T11:53:05;99396.78;;;20.86;72.13
75617;BME280;64200;55.426;37.758;2023-08-12T11:58:06;99374.31;;;20.88;72.94
75617;BME280;64200;55.426;37.758;2023-08-12T12:03:07;99357.94;;;20.94;73.29
75617;BME280;64200;55.426;37.758;2023-08-12T12:08:08;99297.75;;;20.48;73.97
75617;BME280;64200;55.426;37.758;2023-08-12T12:13:10;99257.84;;;20.46;74.67
75617;BME280;64200;55.426;37.758;2023-08-12T12:18:12;99275.63;;;20.33;75.71
75617;BME280;64200;55.426;37.758;2023-08-12T12:23:15;99202.28;;;20.56;74.74
75617;BME280;64200;55.426;37.758;2023-08-12T12:28:16;99214.09;;;20.20;76.42
75617;BME280;64200;55.426;37.758;2023-08-12T12:33:16;99274.66;;;20.30;75.78
75617;BME280;64200;55.426;37.758;2023-08-12T12:38:17;99287.72;;;20.33;75.54
75617;BME280;64200;55.426;37.758;2023-08-12T12:43:17;99303.09;;;20.51;75.16
75617;BME280;64200;55.426;37.758;2023-08-12T12:48:18;99287.41;;;20.50;75.99
75617;BME280;64200;55.426;37.758;2023-08-12T12:53:18;99298.78;;;20.77;75.90
75617;BME280;64200;55.426;37.758;2023-08-12T12:58:19;99308.13;;;20.72;75.03
75617;BME280;64200;55.426;37.758;2023-08-12T13:03:22;99324.03;;;20.62;75.42
75617;BME280;64200;55.426;37.758;2023-08-12T13:08:23;99311.31;;;20.82;74.66
75617;BME280;64200;55.426;37.758;2023-08-12T13:13:24;99299.72;;;20.93;74.26
75617;BME280;64200;55.426;37.758;2023-08-12T13:18:25;99304.91;;;21.16;73.53
75617;BME280;64200;55.426;37.758;2023-08-12T13:23:25;99316.88;;;21.35;72.51
75617;BME280;64200;55.426;37.758;2023-08-12T13:28:26;99298.84;;;21.33;72.58
75617;BME280;64200;55.426;37.758;2023-08-12T13:33:26;99288.91;;;21.53;71.79
75617;BME280;64200;55.426;37.758;2023-08-12T13:38:27;99280.72;;;21.36;71.84
75617;BME280;64200;55.426;37.758;2023-08-12T13:43:27;99260.50;;;21.18;72.31
75617;BME280;64200;55.426;37.758;2023-08-12T13:48:28;99263.72;;;21.36;72.20
75617;BME280;64200;55.426;37.758;2023-08-12T13:53:29;99274.69;;;21.53;71.95
75617;BME280;64200;55.426;37.758;2023-08-12T13:58:29;99289.81;;;21.90;71.58
75617;BME280;64200;55.426;37.758;2023-08-12T14:03:30;99270.66;;;22.33;70.50
75617;BME280;64200;55.426;37.758;2023-08-12T14:08:30;99269.34;;;22.70;69.27
75617;BME280;64200;55.426;37.758;2023-08-12T14:13:31;99268.91;;;23.03;67.65
75617;BME280;64200;55.426;37.758;2023-08-12T14:18:31;99267.63;;;22.67;67.72
75617;BME280;64200;55.426;37.758;2023-08-12T14:23:32;99256.44;;;22.69;67.63
75617;BME280;64200;55.426;37.758;2023-08-12T14:28:32;99243.03;;;22.41;68.49
75617;BME280;64200;55.426;37.758;2023-08-12T14:33:33;99230.69;;;22.38;68.88
75617;BME280;64200;55.426;37.758;2023-08-12T14:38:33;99227.03;;;22.30;68.94
75617;BME280;64200;55.426;37.758;2023-08-12T14:43:34;99221.78;;;22.34;69.26
75617;BME280;64200;55.426;37.758;2023-08-12T14:48:35;99216.94;;;22.21;69.34
75617;BME280;64200;55.426;37.758;2023-08-12T14:53:36;99195.47;;;22.13;69.00
75617;BME280;64200;55.426;37.758;2023-08-12T14:58:37;99201.97;;;22.21;68.86
75617;BME280;64200;55.426;37.758;2023-08-12T15:03:37;99194.03;;;22.19;67.95
75617;BME280;64200;55.426;37.758;2023-08-12T15:08:38;99214.47;;;22.18;67.96
75617;BME280;64200;55.426;37.758;2023-08-12T15:13:38;99232.00;;;22.08;67.96
75617;BME280;64200;55.426;37.758;2023-08-12T15:18:39;99243.03;;;21.91;67.83
75617;BME280;64200;55.426;37.758;2023-08-12T15:23:39;99269.88;;;21.82;68.31
75617;BME280;64200;55.426;37.758;2023-08-12T15:28:40;99266.38;;;21.76;68.30
75617;BME280;64200;55.426;37.758;2023-08-12T15:33:41;99258.34;;;21.88;67.60
75617;BME280;64200;55.426;37.758;2023-08-12T15:38:41;99260.88;;;21.70;67.79
75617;BME280;64200;55.426;37.758;2023-08-12T15:43:42;99256.44;;;21.83;67.60
75617;BME280;64200;55.426;37.758;2023-08-12T15:48:43;99258.97;;;21.73;68.05
75617;BME280;64200;55.426;37.758;2023-08-12T15:53:44;99260.00;;;21.83;67.73
75617;BME280;64200;55.426;37.758;2023-08-12T15:58:44;99220.72;;;21.66;67.98
75617;BME280;64200;55.426;37.758;2023-08-12T16:03:45;99234.59;;;21.78;68.08
75617;BME280;64200;55.426;37.758;2023-08-12T16:08:46;99237.44;;;21.78;68.07
75617;BME280;64200;55.426;37.758;2023-08-12T16:13:46;99231.69;;;21.70;68.49
75617;BME280;64200;55.426;37.758;2023-08-12T16:18:47;99213.97;;;21.77;68.33
75617;BME280;64200;55.426;37.758;2023-08-12T16:23:47;99228.22;;;21.85;68.35
75617;BME280;64200;55.426;37.758;2023-08-12T16:28:48;99233.75;;;21.90;68.41
75617;BME280;64200;55.426;37.758;2023-08-12T16:33:48;99241.38;;;21.96;68.33
75617;BME280;64200;55.426;37.758;2023-08-12T16:38:49;99217.19;;;21.73;68.91
75617;BME280;64200;55.426;37.758;2023-08-12T16:43:49;99226.41;;;21.95;68.68
75617;BME280;64200;55.426;37.758;2023-08-12T16:48:51;99240.06;;;21.97;68.50
75617;BME280;64200;55.426;37.758;2023-08-12T16:53:51;99222.47;;;21.98;68.25
75617;BME280;64200;55.426;37.758;2023-08-12T16:58:52;99228.81;;;22.12;68.09
75617;BME280;64200;55.426;37.758;2023-08-12T17:03:52;99239.34;;;22.04;67.67
75617;BME280;64200;55.426;37.758;2023-08-12T17:08:53;99239.50;;;21.98;67.86
75617;BME280;64200;55.426;37.758;2023-08-12T17:13:53;99245.34;;;21.92;67.89
75617;BME280;64200;55.426;37.758;2023-08-12T17:18:54;99238.28;;;21.86;68.02
75617;BME280;64200;55.426;37.758;2023-08-12T17:23:54;99245.69;;;21.89;67.89
75617;BME280;64200;55.426;37.758;2023-08-12T17:28:55;99248.31;;;21.87;67.58
75617;BME280;64200;55.426;37.758;2023-08-12T17:33:55;99252.06;;;21.82;68.39
75617;BME280;64200;55.426;37.758;2023-08-12T17:38:56;99244.03;;;21.72;68.39
75617;BME280;64200;55.426;37.758;2023-08-12T17:43:56;99242.31;;;21.69;68.36
75617;BME280;64200;55.426;37.758;2023-08-12T17:48:57;99244.91;;;21.67;68.54
75617;BME280;64200;55.426;37.758;2023-08-12T17:53:58;99231.94;;;21.72;68.38
75617;BME280;64200;55.426;37.758;2023-08-12T17:58:58;99233.44;;;21.73;68.20
75617;BME280;64200;55.426;37.758;2023-08-12T18:04:00;99231.00;;;21.77;68.03
75617;BME280;64200;55.426;37.758;2023-08-12T18:09:01;99238.78;;;21.77;67.77
75617;BME280;64200;55.426;37.758;2023-08-12T18:14:01;99227.75;;;21.73;67.92
75617;BME280;64200;55.426;37.758;2023-08-12T18:19:02;99225.97;;;21.62;68.58
75617;BME280;64200;55.426;37.758;2023-08-12T18:24:02;99232.56;;;21.57;69.15
75617;BME280;64200;55.426;37.758;2023-08-12T18:29:03;99227.41;;;21.55;69.42
75617;BME280;64200;55.426;37.758;2023-08-12T18:34:04;99230.50;;;21.44;69.84
75617;BME280;64200;55.426;37.758;2023-08-12T18:39:05;99214.59;;;21.41;70.15
75617;BME280;64200;55.426;37.758;2023-08-12T18:44:05;99196.59;;;21.38;70.11
75617;BME280;64200;55.426;37.758;2023-08-12T18:49:06;99225.88;;;21.33;70.79
75617;BME280;64200;55.426;37.758;2023-08-12T18:54:07;99230.03;;;21.32;70.69
75617;BME280;64200;55.426;37.758;2023-08-12T18:59:07;99217.75;;;21.16;71.27
75617;BME280;64200;55.426;37.758;2023-08-12T19:04:08;99236.25;;;21.31;71.23
75617;BME280;64200;55.426;37.758;2023-08-12T19:09:08;99208.97;;;21.28;71.43
75617;BME280;64200;55.426;37.758;2023-08-12T19:14:12;99217.69;;;21.30;71.50
75617;BME280;64200;55.426;37.758;2023-08-12T19:19:12;99212.50;;;21.20;71.56
75617;BME280;64200;55.426;37.758;2023-08-12T19:24:14;99217.44;;;21.06;72.07
75617;BME280;64200;55.426;37.758;2023-08-12T19:29:14;99211.78;;;21.06;72.30
75617;BME280;64200;55.426;37.758;2023-08-12T19:34:15;99216.91;;;21.08;72.24
75617;BME280;64200;55.426;37.758;2023-08-12T19:39:15;99220.63;;;21.03;72.23
75617;BME280;64200;55.426;37.758;2023-08-12T19:44:16;99223.47;;;21.03;72.17
75617;BME280;64200;55.426;37.758;2023-08-12T19:49:17;99225.75;;;21.04;72.22
75617;BME280;64200;55.426;37.758;2023-08-12T19:54:18;99225.53;;;21.02;72.23
75617;BME280;64200;55.426;37.758;2023-08-12T19:59:18;99224.13;;;20.96;72.41
75617;BME280;64200;55.426;37.758;2023-08-12T20:04:19;99221.22;;;20.88;72.52
75617;BME280;64200;55.426;37.758;2023-08-12T20:09:19;99225.91;;;20.85;73.31
75617;BME280;64200;55.426;37.758;2023-08-12T20:14:20;99225.25;;;20.93;73.22
75617;BME280;64200;55.426;37.758;2023-08-12T20:19:20;99207.47;;;20.92;72.98
75617;BME280;64200;55.426;37.758;2023-08-12T20:24:21;99226.31;;;21.03;72.79
75617;BME280;64200;55.426;37.758;2023-08-12T20:29:21;99207.00;;;21.01;73.16
75617;BME280;64200;55.426;37.758;2023-08-12T20:34:22;99203.75;;;20.97;73.45
75617;BME280;64200;55.426;37.758;2023-08-12T20:39:23;99213.97;;;21.00;73.01
75617;BME280;64200;55.426;37.758;2023-08-12T20:44:23;99195.03;;;20.95;73.10
75617;BME280;64200;55.426;37.758;2023-08-12T20:49:24;99191.84;;;20.99;73.28
75617;BME280;64200;55.426;37.758;2023-08-12T20:54:24;99194.69;;;20.99;73.18
75617;BME280;64200;55.426;37.758;2023-08-12T20:59:25;99195.78;;;20.96;73.22
75617;BME280;64200;55.426;37.758;2023-08-12T21:04:26;99191.41;;;20.95;73.41
75617;BME280;64200;55.426;37.758;2023-08-12T21:09:26;99198.91;;;21.05;73.16
75617;BME280;64200;55.426;37.758;2023-08-12T21:14:27;99188.25;;;20.98;73.15
75617;BME280;64200;55.426;37.758;2023-08-12T21:19:28;99200.63;;;20.87;73.60
75617;BME280;64200;55.426;37.758;2023-08-12T21:24:28;99190.78;;;20.88;73.75
75617;BME280;64200;55.426;37.758;2023-08-12T21:29:29;99180.78;;;20.87;73.58
75617;BME280;64200;55.426;37.758;2023-08-12T21:34:29;99171.22;;;20.77;73.69
75617;BME280;64200;55.426;37.758;2023-08-12T21:39:30;99175.22;;;20.82;73.46
75617;BME280;64200;55.426;37.758;2023-08-12T21:44:30;99174.91;;;20.72;73.82
75617;BME280;64200;55.426;37.758;2023-08-12T21:49:31;99170.16;;;20.67;73.83
75617;BME280;64200;55.426;37.758;2023-08-12T21:54:32;99147.34;;;20.59;73.84
75617;BME280;64200;55.426;37.758;2023-08-12T21:59:33;99164.88;;;20.58;73.94
75617;BME280;64200;55.426;37.758;2023-08-12T22:04:33;99152.81;;;20.57;74.11
75617;BME280;64200;55.426;37.758;2023-08-12T22:09:34;99146.94;;;20.55;74.12
75617;BME280;64200;55.426;37.758;2023-08-12T22:14:34;99144.53;;;20.46;74.49
75617;BME280;64200;55.426;37.758;2023-08-12T22:19:35;99147.16;;;20.44;74.22
75617;BME280;64200;55.426;37.758;2023-08-12T22:24:36;99150.00;;;20.44;74.63
75617;BME280;64200;55.426;37.758;2023-08-12T22:29:38;99147.16;;;20.44;74.50
75617;BME280;64200;55.426;37.758;2023-08-12T22:34:38;99151.44;;;20.37;75.03
75617;BME280;64200;55.426;37.758;2023-08-12T22:39:40;99149.56;;;20.40;74.97
75617;BME280;64200;55.426;37.758;2023-08-12T22:44:41;99148.47;;;20.43;75.00
75617;BME280;64200;55.426;37.758;2023-08-12T22:49:41;99134.31;;;20.43;74.73
75617;BME280;64200;55.426;37.758;2023-08-12T22:54:42;99136.28;;;20.34;74.88
75617;BME280;64200;55.426;37.758;2023-08-12T22:59:42;99138.59;;;20.36;74.85
75617;BME280;64200;55.426;37.758;2023-08-12T23:04:43;99140.63;;;20.35;74.75
75617;BME280;64200;55.426;37.758;2023-08-12T23:09:43;99139.78;;;20.27;74.97
75617;BME280;64200;55.426;37.758;2023-08-12T23:14:44;99125.00;;;20.21;74.87
75617;BME280;64200;55.426;37.758;2023-08-12T23:19:44;99124.13;;;20.13;75.13
75617;BME280;64200;55.426;37.758;2023-08-12T23:24:45;99122.19;;;20.08;75.18
75617;BME280;64200;55.426;37.758;2023-08-12T23:29:46;99127.94;;;20.02;75.70
75617;BME280;64200;55.426;37.758;2023-08-12T23:34:46;99125.13;;;20.02;75.55
75617;BME280;64200;55.426;37.758;2023-08-12T23:39:46;99134.16;;;20.00;75.70
75617;BME280;64200;55.426;37.758;2023-08-12T23:44:47;99118.25;;;19.97;75.57
75617;BME280;64200;55.426;37.758;2023-08-12T23:49:47;99118.81;;;19.96;75.94
75617;BME280;64200;55.426;37.758;2023-08-12T23:54:49;99111.41;;;19.93;75.45
75617;BME280;64200;55.426;37.758;2023-08-12T23:59:49;99094.97;;;19.78;76.43
